Time;durP1;ratioP1;P1;durP2;ratioP2;P2;SDS_P1;SDS_P2;PMS_P1;PMS_P2;Temp;Humidity;BMP_temperature;BMP_pressure;BME280_temperature;BME280_humidity;BME280_pressure;Samples;Min_cycle;Max_cycle;Signal;HPM_P1;HPM_P2
2021/06/28 00:00:06;;;;;;;;;;;15.20;99.90;;;;;;5075727;28;20404;-74
2021/06/28 00:02:32;;;;;;;;;;;15.20;99.90;;;;;;5075370;28;19916;-73
2021/06/28 00:04:58;;;;;;;;;;;15.10;99.90;;;;;;5075208;28;20339;-73
2021/06/28 00:07:24;;;;;;;;;;;15.10;99.90;;;;;;5075158;28;19912;-71
2021/06/28 00:09:50;;;;;;;;;;;15.10;99.90;;;;;;5075180;28;20357;-73
2021/06/28 00:12:16;;;;;;;;;;;15.00;99.90;;;;;;5075415;28;19947;-73
2021/06/28 00:14:42;;;;;;;;;;;15.00;99.90;;;;;;5075553;28;19945;-73
2021/06/28 00:17:07;;;;;;;;;;;14.90;99.90;;;;;;5056160;28;19928;-73
2021/06/28 00:19:33;;;;;;;;;;;14.90;99.90;;;;;;5074768;28;20376;-71
2021/06/28 00:21:59;;;;;;;;;;;14.80;99.90;;;;;;5073437;28;19927;-74
2021/06/28 00:24:26;;;;;;;;;;;14.80;99.90;;;;;;5075145;28;19915;-75
2021/06/28 00:26:52;;;;;;;;;;;14.70;99.90;;;;;;5074965;28;19915;-74
2021/06/28 00:29:18;;;;;;;;;;;14.70;99.90;;;;;;5074318;28;20297;-74
2021/06/28 00:31:43;;;;;;;;;;;14.70;99.90;;;;;;5074980;28;19912;-73
2021/06/28 00:34:09;;;;;;;;;;;14.70;99.90;;;;;;5075032;28;19912;-73
2021/06/28 00:36:35;;;;;;;;;;;14.60;99.90;;;;;;5074816;28;19931;-72
2021/06/28 00:39:01;;;;;;;;;;;14.50;99.90;;;;;;5073689;28;19963;-73
2021/06/28 00:41:27;;;;;;;;;;;14.50;99.90;;;;;;5074760;28;19920;-72
2021/06/28 00:43:53;;;;;;;;;;;14.50;99.90;;;;;;5074143;28;19913;-73
2021/06/28 00:46:19;;;;;;;;;;;14.50;99.90;;;;;;5074061;28;20365;-73
2021/06/28 00:48:45;;;;;;;;;;;14.40;99.90;;;;;;5074605;28;19942;-73
2021/06/28 00:51:11;;;;;;;;;;;14.40;99.90;;;;;;5074471;28;19913;-74
2021/06/28 00:53:37;;;;;;;;;;;14.30;99.90;;;;;;5074585;28;19913;-73
2021/06/28 00:56:09;;;;;;;;;;;14.20;99.90;;;;;;5056689;28;19909;-73
2021/06/28 00:58:36;;;;;;;;;;;14.10;99.90;;;;;;5074197;28;19919;-72
2021/06/28 01:01:02;;;;;;;;;;;14.10;99.90;;;;;;5074236;28;19920;-70
2021/06/28 01:03:28;;;;;;;;;;;14.00;99.90;;;;;;5074444;28;19939;-71
2021/06/28 01:05:54;;;;;;;;;;;14.10;99.90;;;;;;5073113;28;19913;-72
2021/06/28 01:08:20;;;;;;;;;;;14.10;99.90;;;;;;5074409;28;19916;-71
2021/06/28 01:10:46;;;;;;;;;;;14.10;99.90;;;;;;5074669;28;19916;-74
2021/06/28 01:13:12;;;;;;;;;;;14.00;99.90;;;;;;5072034;28;19915;-72
2021/06/28 01:15:37;;;;;;;;;;;14.00;99.90;;;;;;5074511;28;19917;-73
2021/06/28 01:18:03;;;;;;;;;;;14.00;99.90;;;;;;5073355;28;19916;-72
2021/06/28 01:20:29;;;;;;;;;;;14.00;99.90;;;;;;5073268;28;19912;-73
2021/06/28 01:22:57;;;;;;;;;;;14.00;99.90;;;;;;5074138;28;19912;-74
2021/06/28 01:25:28;;;;;;;;;;;14.00;99.90;;;;;;5073851;28;19908;-73
2021/06/28 01:27:54;;;;;;;;;;;14.00;99.90;;;;;;5073682;28;20281;-73
2021/06/28 01:30:21;;;;;;;;;;;14.00;99.90;;;;;;5073959;28;20277;-73
2021/06/28 01:32:47;;;;;;;;;;;13.90;99.90;;;;;;5073916;28;20384;-73
2021/06/28 01:35:13;;;;;;;;;;;13.90;99.90;;;;;;5072712;28;19912;-73
2021/06/28 01:37:39;;;;;;;;;;;13.80;99.90;;;;;;5055086;28;19916;-74
2021/06/28 01:40:06;;;;;;;;;;;13.70;99.90;;;;;;5056147;28;20215;-74
2021/06/28 01:42:35;;;;;;;;;;;13.60;99.90;;;;;;5072683;28;19935;-72
2021/06/28 01:45:00;;;;;;;;;;;13.60;99.90;;;;;;5073497;28;19921;-74
2021/06/28 01:47:26;;;;;;;;;;;13.50;99.90;;;;;;5073820;28;19915;-72
2021/06/28 01:49:52;;;;;;;;;;;13.50;99.90;;;;;;5072925;28;19912;-74
2021/06/28 01:52:18;;;;;;;;;;;13.40;99.90;;;;;;5073514;28;19913;-73
2021/06/28 01:54:44;;;;;;;;;;;13.40;99.90;;;;;;5073646;28;19964;-74
2021/06/28 01:57:10;;;;;;;;;;;13.40;99.90;;;;;;5073184;28;19913;-74
2021/06/28 01:59:36;;;;;;;;;;;13.40;99.90;;;;;;5073503;28;19919;-73
2021/06/28 02:02:03;;;;;;;;;;;13.30;99.90;;;;;;5055050;28;19916;-72
2021/06/28 02:04:29;;;;;;;;;;;13.30;99.90;;;;;;5072310;28;19931;-73
2021/06/28 02:06:55;;;;;;;;;;;13.30;99.90;;;;;;5073025;28;19912;-73
2021/06/28 02:09:21;;;;;;;;;;;13.20;99.90;;;;;;5073218;28;19908;-72
2021/06/28 02:11:47;;;;;;;;;;;13.10;99.90;;;;;;5055401;28;19915;-73
2021/06/28 02:14:13;;;;;;;;;;;13.10;99.90;;;;;;5053655;28;20279;-73
2021/06/28 02:16:42;;;;;;;;;;;13.00;99.90;;;;;;5072147;28;19916;-73
2021/06/28 02:19:08;;;;;;;;;;;13.00;99.90;;;;;;5054053;28;19908;-72
2021/06/28 02:21:34;;;;;;;;;;;12.90;99.90;;;;;;5072436;28;19962;-73
2021/06/28 02:24:00;;;;;;;;;;;12.90;99.90;;;;;;5073086;28;19912;-74
2021/06/28 02:26:26;;;;;;;;;;;12.90;99.90;;;;;;5072363;28;19923;-73
2021/06/28 02:28:52;;;;;;;;;;;12.90;99.90;;;;;;5071035;28;19915;-73
2021/06/28 02:31:20;;;;;;;;;;;12.90;99.90;;;;;;5071736;28;20408;-73
2021/06/28 02:33:45;;;;;;;;;;;12.90;99.90;;;;;;5055310;28;19912;-72
2021/06/28 02:36:11;;;;;;;;;;;12.80;99.90;;;;;;5071265;28;19914;-73
2021/06/28 02:38:38;;;;;;;;;;;12.80;99.90;;;;;;5054963;28;19923;-73
2021/06/28 02:41:04;;;;;;;;;;;12.80;99.90;;;;;;5054828;28;19917;-72
2021/06/28 02:43:29;;;;;;;;;;;12.80;99.90;;;;;;5072473;28;20284;-72
2021/06/28 02:45:55;;;;;;;;;;;12.70;99.90;;;;;;5072453;28;19908;-72
2021/06/28 02:48:21;;;;;;;;;;;12.70;99.90;;;;;;5072423;28;20276;-71
2021/06/28 02:50:47;;;;;;;;;;;12.70;99.90;;;;;;5054985;28;19909;-73
2021/06/28 02:53:16;;;;;;;;;;;12.70;99.90;;;;;;5071884;28;19916;-69
2021/06/28 02:55:43;;;;;;;;;;;12.70;99.90;;;;;;5071072;28;19912;-72
2021/06/28 02:58:09;;;;;;;;;;;12.70;99.90;;;;;;5071873;28;19927;-72
2021/06/28 03:00:35;;;;;;;;;;;12.70;99.90;;;;;;5072613;28;20304;-70
2021/06/28 03:03:01;;;;;;;;;;;12.70;99.90;;;;;;5054075;28;19916;-70
2021/06/28 03:05:27;;;;;;;;;;;12.70;99.90;;;;;;5072909;28;19927;-73
2021/06/28 03:07:53;;;;;;;;;;;12.70;99.90;;;;;;5072351;28;19946;-73
2021/06/28 03:10:19;;;;;;;;;;;12.80;99.90;;;;;;5072421;28;19912;-73
2021/06/28 03:12:45;;;;;;;;;;;12.90;99.90;;;;;;5053449;28;19912;-71
2021/06/28 03:15:14;;;;;;;;;;;12.90;99.90;;;;;;5072386;28;19912;-73
2021/06/28 03:17:40;;;;;;;;;;;12.90;99.90;;;;;;5051227;28;20361;-70
2021/06/28 03:20:07;;;;;;;;;;;13.00;99.90;;;;;;5066519;28;19935;-72
2021/06/28 03:22:33;;;;;;;;;;;13.00;99.90;;;;;;5065707;28;19920;-73
2021/06/28 03:24:59;;;;;;;;;;;13.10;99.90;;;;;;5065201;28;19917;-72
2021/06/28 03:27:25;;;;;;;;;;;13.20;99.90;;;;;;5067203;28;20329;-71
2021/06/28 03:29:51;;;;;;;;;;;13.20;99.90;;;;;;5074678;28;19909;-73
2021/06/28 03:32:17;;;;;;;;;;;13.30;99.90;;;;;;5075920;28;19913;-72
2021/06/28 03:34:43;;;;;;;;;;;13.30;99.90;;;;;;5076213;28;20285;-72
2021/06/28 03:37:09;;;;;;;;;;;13.40;99.90;;;;;;5074705;28;19916;-72
2021/06/28 03:39:35;;;;;;;;;;;13.50;99.90;;;;;;5074346;28;20027;-71
2021/06/28 03:42:01;;;;;;;;;;;13.50;99.90;;;;;;5075282;28;20327;-73
2021/06/28 03:44:27;;;;;;;;;;;13.60;99.90;;;;;;5074832;28;20415;-72
2021/06/28 03:46:52;;;;;;;;;;;13.70;99.90;;;;;;5075151;28;19912;-72
2021/06/28 03:49:18;;;;;;;;;;;13.80;99.90;;;;;;5075249;28;20381;-72
2021/06/28 03:51:44;;;;;;;;;;;13.90;99.90;;;;;;5075213;28;19913;-72
2021/06/28 03:54:10;;;;;;;;;;;13.90;99.90;;;;;;5075603;28;19912;-72
2021/06/28 03:56:36;;;;;;;;;;;14.00;99.90;;;;;;5075417;28;19908;-71
2021/06/28 03:59:03;;;;;;;;;;;14.10;99.90;;;;;;5076206;28;19908;-72
2021/06/28 04:01:28;;;;;;;;;;;14.20;99.90;;;;;;5075778;28;19923;-72
2021/06/28 04:03:55;;;;;;;;;;;14.30;99.90;;;;;;5054203;28;19913;-69
2021/06/28 04:06:22;;;;;;;;;;;14.40;99.90;;;;;;5067437;28;19912;-74
2021/06/28 04:08:48;;;;;;;;;;;14.50;99.90;;;;;;5074811;28;19948;-70
2021/06/28 04:11:14;;;;;;;;;;;14.60;99.90;;;;;;5075780;28;19912;-71
2021/06/28 04:13:40;;;;;;;;;;;14.70;99.90;;;;;;5076116;28;20276;-72
2021/06/28 04:16:06;;;;;;;;;;;14.80;99.90;;;;;;5075945;28;19909;-72
2021/06/28 04:18:31;;;;;;;;;;;15.00;99.90;;;;;;5075047;28;19916;-72
2021/06/28 04:20:57;;;;;;;;;;;15.10;99.90;;;;;;5053278;28;19912;-71
2021/06/28 04:23:23;;;;;;;;;;;15.20;99.90;;;;;;5055626;28;20361;-72
2021/06/28 04:25:49;;;;;;;;;;;15.40;99.90;;;;;;5055751;28;19912;-73
2021/06/28 04:28:15;;;;;;;;;;;15.50;99.90;;;;;;5069052;28;19909;-74
2021/06/28 04:30:41;;;;;;;;;;;15.70;99.90;;;;;;5073996;28;19920;-75
2021/06/28 04:33:07;;;;;;;;;;;15.90;99.90;;;;;;5075084;28;19905;-72
2021/06/28 04:35:33;;;;;;;;;;;16.00;99.90;;;;;;5075359;28;19941;-69
2021/06/28 04:37:59;;;;;;;;;;;16.00;99.90;;;;;;5075379;28;19921;-72
2021/06/28 04:40:26;;;;;;;;;;;16.10;99.90;;;;;;5074083;28;20364;-72
2021/06/28 04:42:53;;;;;;;;;;;16.20;99.90;;;;;;5057873;28;19920;-71
2021/06/28 04:45:19;;;;;;;;;;;16.20;99.90;;;;;;5075226;28;19938;-71
2021/06/28 04:47:45;;;;;;;;;;;16.20;99.90;;;;;;5075650;28;19926;-73
2021/06/28 04:50:11;;;;;;;;;;;16.20;99.90;;;;;;5057598;28;19905;-72
2021/06/28 04:52:37;;;;;;;;;;;16.20;99.90;;;;;;5074866;28;19912;-71
2021/06/28 04:55:06;;;;;;;;;;;16.10;99.90;;;;;;5075302;28;19904;-71
2021/06/28 04:57:32;;;;;;;;;;;16.10;99.90;;;;;;5074806;28;19904;-71
2021/06/28 04:59:58;;;;;;;;;;;16.00;99.90;;;;;;5075059;28;19908;-71
2021/06/28 05:02:24;;;;;;;;;;;15.90;99.90;;;;;;5074963;28;19919;-69
2021/06/28 05:04:50;;;;;;;;;;;15.90;99.90;;;;;;5074449;28;19935;-72
2021/06/28 05:07:16;;;;;;;;;;;15.90;99.90;;;;;;5074225;28;20403;-72
2021/06/28 05:09:42;;;;;;;;;;;15.90;99.90;;;;;;5073792;28;19919;-71
2021/06/28 05:12:08;;;;;;;;;;;15.90;99.90;;;;;;5056884;28;19909;-73
2021/06/28 05:14:34;;;;;;;;;;;16.00;99.90;;;;;;5074058;28;19923;-70
2021/06/28 05:17:00;;;;;;;;;;;15.90;99.90;;;;;;5073956;28;19908;-71
2021/06/28 05:19:26;;;;;;;;;;;16.00;99.90;;;;;;5073601;28;19913;-71
2021/06/28 05:21:52;;;;;;;;;;;16.00;99.90;;;;;;5055605;28;19967;-72
2021/06/28 05:24:18;;;;;;;;;;;16.00;99.90;;;;;;5073759;28;19913;-71
2021/06/28 05:26:44;;;;;;;;;;;16.00;99.90;;;;;;5073720;28;19912;-71
2021/06/28 05:29:10;;;;;;;;;;;16.10;99.90;;;;;;5073903;28;19923;-70
2021/06/28 05:31:35;;;;;;;;;;;16.10;99.90;;;;;;5073658;28;20288;-70
2021/06/28 05:34:01;;;;;;;;;;;16.10;99.90;;;;;;5073457;28;20023;-72
2021/06/28 05:36:27;;;;;;;;;;;16.10;99.90;;;;;;5072984;28;19915;-71
2021/06/28 05:38:54;;;;;;;;;;;16.10;99.90;;;;;;5072667;28;19982;-72
2021/06/28 05:41:20;;;;;;;;;;;16.10;99.90;;;;;;5073355;28;19913;-72
2021/06/28 05:43:46;;;;;;;;;;;16.20;99.90;;;;;;5073686;28;19920;-72
2021/06/28 05:46:12;;;;;;;;;;;16.30;99.90;;;;;;5053867;28;20288;-74
2021/06/28 05:48:38;;;;;;;;;;;16.40;99.90;;;;;;5073224;28;19919;-73
2021/06/28 05:51:04;;;;;;;;;;;16.50;99.90;;;;;;5073302;28;19912;-72
2021/06/28 05:53:30;;;;;;;;;;;16.50;99.90;;;;;;5071274;28;20380;-71
2021/06/28 05:55:58;;;;;;;;;;;16.40;99.90;;;;;;5073951;28;19915;-70
2021/06/28 05:58:25;;;;;;;;;;;16.40;99.90;;;;;;5064821;28;19908;-71
2021/06/28 06:00:51;;;;;;;;;;;16.50;99.90;;;;;;5054256;28;19909;-70
2021/06/28 06:03:17;;;;;;;;;;;16.50;99.90;;;;;;5053858;28;19920;-69
2021/06/28 06:05:43;;;;;;;;;;;16.60;99.90;;;;;;5054285;28;19913;-71
2021/06/28 06:08:10;;;;;;;;;;;16.60;99.90;;;;;;5053833;28;20327;-69
2021/06/28 06:10:36;;;;;;;;;;;16.60;99.90;;;;;;5062293;28;20361;-70
2021/06/28 06:13:02;;;;;;;;;;;16.50;99.90;;;;;;5072076;28;19909;-72
2021/06/28 06:15:28;;;;;;;;;;;16.70;99.90;;;;;;5052414;28;20000;-68
2021/06/28 06:17:53;;;;;;;;;;;16.70;99.90;;;;;;5053906;28;19916;-71
2021/06/28 06:20:19;;;;;;;;;;;16.70;99.90;;;;;;5035624;28;19954;-72
2021/06/28 06:22:46;;;;;;;;;;;16.80;99.90;;;;;;5053785;28;19917;-68
2021/06/28 06:25:12;;;;;;;;;;;16.70;99.90;;;;;;5053872;28;19916;-68
2021/06/28 06:27:38;;;;;;;;;;;16.90;99.90;;;;;;5072503;28;19912;-69
2021/06/28 06:30:04;;;;;;;;;;;16.90;99.90;;;;;;5057958;28;19912;-71
2021/06/28 06:32:30;;;;;;;;;;;16.90;99.90;;;;;;5046465;28;19916;-70
2021/06/28 06:34:56;;;;;;;;;;;17.00;99.90;;;;;;5055983;28;19974;-70
2021/06/28 06:37:22;;;;;;;;;;;17.00;99.90;;;;;;5071605;28;19915;-74
2021/06/28 06:39:48;;;;;;;;;;;17.20;99.90;;;;;;5072473;28;19920;-72
2021/06/28 06:42:14;;;;;;;;;;;17.30;99.90;;;;;;5072540;28;19917;-72
2021/06/28 06:44:40;;;;;;;;;;;17.30;99.90;;;;;;5072352;28;19916;-73
2021/06/28 06:47:05;;;;;;;;;;;17.40;99.90;;;;;;5073125;28;19908;-74
2021/06/28 06:49:31;;;;;;;;;;;17.40;99.90;;;;;;5072881;28;19913;-72
2021/06/28 06:51:57;;;;;;;;;;;17.60;99.90;;;;;;5073117;28;20250;-71
2021/06/28 06:54:23;;;;;;;;;;;17.50;99.90;;;;;;5072791;28;19908;-73
2021/06/28 06:56:49;;;;;;;;;;;17.40;99.90;;;;;;5068408;28;19921;-74
2021/06/28 06:59:15;;;;;;;;;;;17.40;99.90;;;;;;5052988;28;19915;-71
2021/06/28 07:01:42;;;;;;;;;;;17.40;99.90;;;;;;5054042;28;20415;-71
2021/06/28 07:04:08;;;;;;;;;;;17.30;99.90;;;;;;5052854;28;19919;-74
2021/06/28 07:06:34;;;;;;;;;;;17.40;99.90;;;;;;5071734;28;19908;-73
2021/06/28 07:09:00;;;;;;;;;;;17.50;99.90;;;;;;5071474;28;19924;-70
2021/06/28 07:11:26;;;;;;;;;;;17.50;99.90;;;;;;5071283;28;20307;-70
2021/06/28 07:13:52;;;;;;;;;;;17.60;99.90;;;;;;5071476;28;19959;-69
2021/06/28 07:16:19;;;;;;;;;;;17.80;99.90;;;;;;5071816;28;19908;-72
2021/06/28 07:18:45;;;;;;;;;;;18.00;99.90;;;;;;5071907;28;19916;-70
2021/06/28 07:21:11;;;;;;;;;;;17.80;99.90;;;;;;5069182;28;20739;-72
2021/06/28 07:23:37;;;;;;;;;;;17.90;99.90;;;;;;5053815;28;20011;-69
2021/06/28 07:26:03;;;;;;;;;;;17.90;99.90;;;;;;5054064;28;20368;-73
2021/06/28 07:28:29;;;;;;;;;;;18.00;99.90;;;;;;5071247;28;19915;-70
2021/06/28 07:30:57;;;;;;;;;;;18.00;99.90;;;;;;5071932;28;19919;-72
2021/06/28 07:33:24;;;;;;;;;;;18.10;99.90;;;;;;5053899;28;19912;-72
2021/06/28 07:35:50;;;;;;;;;;;18.20;99.90;;;;;;5069881;28;19917;-70
2021/06/28 07:38:16;;;;;;;;;;;18.30;99.90;;;;;;5071586;28;19927;-74
2021/06/28 07:40:42;;;;;;;;;;;18.20;99.90;;;;;;5071554;28;19912;-72
2021/06/28 07:43:08;;;;;;;;;;;18.20;99.90;;;;;;5069945;28;19920;-73
2021/06/28 07:45:34;;;;;;;;;;;18.30;99.90;;;;;;5070707;28;19913;-73
2021/06/28 07:48:01;;;;;;;;;;;18.20;99.90;;;;;;5071988;28;19954;-73
2021/06/28 07:50:29;;;;;;;;;;;18.30;99.90;;;;;;5071389;28;20249;-74
2021/06/28 07:52:55;;;;;;;;;;;18.40;99.90;;;;;;5061814;28;19912;-73
2021/06/28 07:55:21;;;;;;;;;;;18.50;99.90;;;;;;5068359;28;20288;-76
2021/06/28 07:57:47;;;;;;;;;;;18.40;99.90;;;;;;5072121;28;19913;-73
2021/06/28 08:00:13;;;;;;;;;;;18.60;99.90;;;;;;5053590;28;19947;-74
2021/06/28 08:02:39;;;;;;;;;;;18.70;99.90;;;;;;5053115;28;19943;-74
2021/06/28 08:05:06;;;;;;;;;;;18.40;99.90;;;;;;5053842;28;20348;-74
2021/06/28 08:07:32;;;;;;;;;;;18.70;99.90;;;;;;5071535;28;19912;-75
2021/06/28 08:09:57;;;;;;;;;;;18.80;99.90;;;;;;5071829;28;20392;-74
2021/06/28 08:12:23;;;;;;;;;;;18.90;99.90;;;;;;5072796;28;19917;-76
2021/06/28 08:14:49;;;;;;;;;;;18.60;99.90;;;;;;5069306;28;19916;-69
2021/06/28 08:17:15;;;;;;;;;;;18.40;99.90;;;;;;5076820;28;19905;-73
2021/06/28 08:19:43;;;;;;;;;;;18.40;99.90;;;;;;5076770;28;19912;-72
2021/06/28 08:22:09;;;;;;;;;;;18.80;99.90;;;;;;5076244;28;19912;-76
2021/06/28 08:24:35;;;;;;;;;;;19.00;99.90;;;;;;5057078;28;19920;-76
2021/06/28 08:27:01;;;;;;;;;;;19.20;99.90;;;;;;5075385;28;19908;-72
2021/06/28 08:29:27;;;;;;;;;;;19.50;99.90;;;;;;5074536;28;19911;-74
2021/06/28 08:31:53;;;;;;;;;;;19.60;99.90;;;;;;5074621;28;19912;-75
2021/06/28 08:34:19;;;;;;;;;;;19.70;99.90;;;;;;5074849;28;20056;-76
2021/06/28 08:36:45;;;;;;;;;;;20.00;99.90;;;;;;5073888;28;19920;-75
2021/06/28 08:39:12;;;;;;;;;;;20.20;99.90;;;;;;5073673;28;19935;-76
2021/06/28 08:41:39;;;;;;;;;;;20.50;99.90;;;;;;5056389;28;19908;-74
2021/06/28 08:44:05;;;;;;;;;;;21.00;99.90;;;;;;5052792;28;19923;-73
2021/06/28 08:46:31;;;;;;;;;;;21.10;99.90;;;;;;5069580;28;19932;-75
2021/06/28 08:48:57;;;;;;;;;;;22.00;99.50;;;;;;5071565;28;20357;-74
2021/06/28 08:51:23;;;;;;;;;;;22.10;98.20;;;;;;5073245;28;19912;-71
2021/06/28 08:53:54;;;;;;;;;;;22.50;96.50;;;;;;5055993;28;19908;-73
2021/06/28 08:56:20;;;;;;;;;;;22.30;95.60;;;;;;5074666;28;19919;-74
2021/06/28 08:58:46;;;;;;;;;;;22.20;97.20;;;;;;5056068;28;19912;-75
2021/06/28 09:01:12;;;;;;;;;;;22.50;95.40;;;;;;5069979;28;19985;-74
2021/06/28 09:03:38;;;;;;;;;;;22.50;94.00;;;;;;5056158;28;20812;-72
2021/06/28 09:06:06;;;;;;;;;;;22.40;93.70;;;;;;5072701;28;20392;-74
2021/06/28 09:08:34;;;;;;;;;;;21.90;94.20;;;;;;5073965;28;19919;-71
2021/06/28 09:11:00;;;;;;;;;;;21.80;95.60;;;;;;5074038;28;20289;-73
2021/06/28 09:13:46;;;;;;;25.90;7.00;;;22.20;95.00;;;;;;5054060;28;20415;-71
2021/06/28 09:16:24;;;;;;;18.67;6.03;;;22.20;94.80;;;;;;5064821;28;20409;-67
2021/06/28 09:19:03;;;;;;;17.87;5.90;;;21.80;94.60;;;;;;5071376;28;20386;-77
2021/06/28 09:21:40;;;;;;;18.88;5.82;;;22.10;94.50;;;;;;5050537;28;20419;-71
2021/06/28 09:24:26;;;;;;;24.27;6.75;;;22.30;94.20;;;;;;5054298;28;20922;-72
2021/06/28 09:27:11;;;;;;;26.30;6.40;;;22.60;94.40;;;;;;5071748;28;20383;-70
2021/06/28 09:29:43;;;;;;;19.77;5.90;;;23.50;92.90;;;;;;5071914;28;20401;-72
2021/06/28 09:32:12;;;;;;;15.73;5.40;;;23.90;91.50;;;;;;5070574;28;20390;-70
2021/06/28 09:34:40;;;;;;;66.45;7.90;;;23.50;91.40;;;;;;5071607;28;20410;-68
2021/06/28 09:37:10;;;;;;;17.90;5.28;;;23.70;92.30;;;;;;5067645;28;20174;-69
2021/06/28 09:39:41;;;;;;;15.20;5.20;;;23.50;90.20;;;;;;5038859;28;20234;-72
2021/06/28 09:42:07;;;;;;;13.52;5.80;;;23.20;91.00;;;;;;5071307;28;20606;-71
2021/06/28 09:44:34;;;;;;;15.73;5.65;;;23.50;90.60;;;;;;5070326;28;20188;-72
2021/06/28 09:47:07;;;;;;;18.52;6.53;;;22.70;90.90;;;;;;5052590;28;20175;-70
2021/06/28 09:49:34;;;;;;;;;;;22.00;92.40;;;;;;5063050;28;20025;-70
2021/06/28 09:51:59;;;;;;;;;;;22.50;93.10;;;;;;5072783;28;19966;-68
2021/06/28 09:54:25;;;;;;;;;;;22.90;92.30;;;;;;5072628;28;19960;-70
2021/06/28 09:56:52;;;;;;;;;;;23.40;92.00;;;;;;5073109;28;19915;-70
2021/06/28 09:59:24;;;;;;;;;;;23.00;90.70;;;;;;5073131;28;19911;-69
2021/06/28 10:01:51;;;;;;;;;;;22.80;91.50;;;;;;5073446;28;19908;-72
2021/06/28 10:04:39;;;;;;;;;;;23.20;91.00;;;;;;5073769;28;19927;-67
2021/06/28 10:07:18;;;;;;;;;;;23.70;87.60;;;;;;5053743;28;19908;-71
2021/06/28 10:09:44;;;;;;;;;;;23.00;89.80;;;;;;5053268;28;19908;-72
2021/06/28 10:12:19;;;;;;;;;;;23.20;89.70;;;;;;5063772;28;19932;-71
2021/06/28 10:14:45;;;;;;;;;;;23.60;90.60;;;;;;5072353;28;19924;-68
2021/06/28 10:17:11;;;;;;;;;;;24.20;86.20;;;;;;5053620;28;19904;-70
2021/06/28 10:19:37;;;;;;;;;;;24.30;86.80;;;;;;5072928;28;19908;-71
2021/06/28 10:22:03;;;;;;;;;;;24.60;85.00;;;;;;5054391;28;20376;-71
2021/06/28 10:24:29;;;;;;;;;;;24.30;83.70;;;;;;5072030;28;19916;-72
2021/06/28 10:26:55;;;;;;;;;;;24.10;85.60;;;;;;5050885;28;19908;-74
2021/06/28 10:29:21;;;;;;;;;;;23.50;85.60;;;;;;5046556;28;19908;-70
2021/06/28 10:31:47;;;;;;;;;;;23.30;90.10;;;;;;5071194;28;19912;-72
2021/06/28 10:34:13;;;;;;;;;;;23.20;87.80;;;;;;5072423;28;19920;-70
2021/06/28 10:36:40;;;;;;;;;;;22.90;90.10;;;;;;5054283;28;19957;-70
2021/06/28 10:39:06;;;;;;;;;;;23.20;88.80;;;;;;5071920;28;19935;-72
2021/06/28 10:41:42;;;;;;;;;;;23.30;88.10;;;;;;5071690;28;19919;-70
2021/06/28 10:44:09;;;;;;;;;;;23.60;87.90;;;;;;5071757;28;19921;-71
2021/06/28 10:46:36;;;;;;;;;;;23.60;88.20;;;;;;5071286;28;19920;-65
2021/06/28 10:49:02;;;;;;;;;;;23.10;87.90;;;;;;5070548;28;19909;-68
2021/06/28 10:51:37;;;;;;;;;;;22.30;89.80;;;;;;5054787;28;19919;-69
2021/06/28 10:54:04;;;;;;;;;;;22.30;90.80;;;;;;5072985;28;19911;-69
2021/06/28 10:56:31;;;;;;;;;;;22.90;89.70;;;;;;5072008;28;19912;-66
2021/06/28 10:58:58;;;;;;;;;;;23.00;87.40;;;;;;5070826;28;19916;-66
2021/06/28 11:01:34;;;;;;;;;;;23.00;88.20;;;;;;5067614;28;20273;-67
2021/06/28 11:04:10;;;;;;;;;;;23.50;88.40;;;;;;5068817;28;19970;-69
2021/06/28 11:06:36;;;;;;;;;;;23.30;87.50;;;;;;5052339;28;19904;-66
2021/06/28 11:09:08;;;;;;;;;;;23.30;87.90;;;;;;5070469;28;19908;-68
2021/06/28 11:11:46;;;;;;;;;;;23.70;87.90;;;;;;5070543;28;19909;-69
2021/06/28 11:14:18;;;;;;;;;;;23.30;87.40;;;;;;5070726;28;19905;-69
2021/06/28 11:17:06;;;;;;;;;;;22.60;88.50;;;;;;5062112;28;19904;-67
2021/06/28 11:19:46;;;;;;;;;;;22.70;88.70;;;;;;5034384;28;19905;-67
2021/06/28 11:22:27;;;;;;;;;;;22.70;88.60;;;;;;5051692;28;20350;-67
2021/06/28 11:25:00;;;;;;;;;;;22.90;89.80;;;;;;5051903;28;20273;-68
2021/06/28 11:27:26;;;;;;;;;;;23.50;87.40;;;;;;5034894;28;19912;-67
2021/06/28 11:29:54;;;;;;;;;;;23.50;86.70;;;;;;5052354;28;19913;-68
2021/06/28 11:32:20;;;;;;;;;;;23.20;86.90;;;;;;5052645;28;20400;-66
2021/06/28 11:34:46;;;;;;;;;;;23.40;87.00;;;;;;5034300;28;19913;-69
2021/06/28 11:37:12;;;;;;;;;;;23.30;87.00;;;;;;5052732;28;19905;-69
2021/06/28 11:39:51;;;;;;;;;;;23.60;87.20;;;;;;5052004;28;20254;-68
2021/06/28 11:42:22;;;;;;;;;;;23.80;85.60;;;;;;5034919;28;20254;-68
2021/06/28 11:44:49;;;;;;;;;;;23.60;84.10;;;;;;5035095;28;19912;-67
2021/06/28 11:47:15;;;;;;;;;;;23.40;85.80;;;;;;5063321;28;19905;-68
2021/06/28 11:49:41;;;;;;;;;;;23.30;85.20;;;;;;5074508;28;19909;-67
2021/06/28 11:52:13;;;;;;;;;;;23.20;88.20;;;;;;5075919;28;19905;-68
2021/06/28 11:54:39;;;;;;;;;;;22.70;86.40;;;;;;5058296;28;20332;-67
2021/06/28 11:57:05;;;;;;;;;;;22.70;87.40;;;;;;5075890;28;19908;-68
2021/06/28 11:59:31;;;;;;;;;;;22.70;85.30;;;;;;5058388;28;19904;-67
2021/06/28 12:02:02;;;;;;;;;;;22.60;88.40;;;;;;5057595;28;19978;-66
2021/06/28 12:04:28;;;;;;;;;;;22.80;85.70;;;;;;5076244;28;19921;-66
2021/06/28 12:06:55;;;;;;;18.65;6.90;;;22.80;86.80;;;;;;5074377;28;20390;-67
2021/06/28 12:09:28;;;;;;;16.23;6.30;;;23.10;87.90;;;;;;5075695;28;20178;-68
2021/06/28 12:12:11;;;;;;;21.15;6.18;;;23.50;87.40;;;;;;5074224;28;20541;-67
2021/06/28 12:14:43;;;;;;;19.65;6.90;;;23.00;85.30;;;;;;5073318;28;20178;-68
2021/06/28 12:17:27;;;;;;;21.40;7.10;;;22.90;87.60;;;;;;5075587;28;20619;-67
2021/06/28 12:20:00;;;;;;;24.83;7.05;;;22.70;87.50;;;;;;5075295;28;20173;-68
2021/06/28 12:22:28;;;;;;;22.05;7.05;;;22.90;87.50;;;;;;5074286;28;20177;-68
2021/06/28 12:25:07;;;;;;;20.20;7.72;;;22.70;88.60;;;;;;5074020;28;20178;-68
2021/06/28 12:27:35;;;;;;;27.65;6.00;;;22.70;86.40;;;;;;5075400;28;20154;-69
2021/06/28 12:30:01;;;;;;;16.80;7.13;;;22.50;88.10;;;;;;5073968;28;20192;-67
2021/06/28 12:32:28;;;;;;;22.92;7.43;;;22.00;88.90;;;;;;5075464;28;20162;-68
2021/06/28 12:34:56;;;;;;;21.05;7.22;;;21.70;89.70;;;;;;5075262;28;20170;-68
2021/06/28 12:37:35;;;;;;;18.60;6.55;;;22.00;90.30;;;;;;5056634;28;20182;-69
2021/06/28 12:40:20;;;;;;;16.88;6.30;;;22.20;89.70;;;;;;5073808;28;20224;-68
2021/06/28 12:42:47;;;;;;;17.52;6.93;;;22.20;89.30;;;;;;5056593;28;20630;-68
2021/06/28 12:45:18;;;;;;;18.02;7.03;;;22.20;90.40;;;;;;5073970;28;20508;-69
2021/06/28 12:47:50;;;;;;;25.00;7.05;;;21.70;90.00;;;;;;5073866;28;20240;-69
2021/06/28 12:50:18;;;;;;;16.30;6.70;;;21.60;90.30;;;;;;5073572;28;20169;-67
2021/06/28 12:52:44;;;;;;;21.10;7.22;;;21.80;90.50;;;;;;5074804;28;20169;-72
2021/06/28 12:55:19;;;;;;;21.13;6.82;;;22.00;89.70;;;;;;5069318;28;20198;-73
2021/06/28 12:57:46;;;;;;;18.60;6.45;;;22.10;90.50;;;;;;5064229;28;20177;-73
2021/06/28 13:00:23;;;;;;;23.23;6.78;;;22.20;89.20;;;;;;5054313;28;20193;-74
2021/06/28 13:02:57;;;;;;;21.10;6.90;;;21.80;89.70;;;;;;5060697;28;20245;-74
2021/06/28 13:05:34;;;;;;;25.20;7.10;;;21.70;90.30;;;;;;5047811;28;20174;-77
2021/06/28 13:08:16;;;;;;;23.52;7.68;;;21.60;91.10;;;;;;5063467;28;20169;-76
2021/06/28 13:10:59;;;;;;;20.77;7.00;;;21.40;90.40;;;;;;5064825;28;20178;-74
2021/06/28 13:13:26;;;;;;;22.90;7.28;;;21.00;91.00;;;;;;5062252;28;20169;-76
2021/06/28 13:16:05;;;;;;;17.52;7.40;;;20.90;91.60;;;;;;5065688;28;20194;-73
2021/06/28 13:18:31;;;;;;;19.58;7.47;;;20.80;91.70;;;;;;5073888;28;20626;-75
2021/06/28 13:21:01;;;;;;;17.02;6.60;;;20.80;91.70;;;;;;5073605;28;20241;-71
2021/06/28 13:23:27;;;;;;;22.00;7.70;;;20.70;91.70;;;;;;5072550;28;20201;-77
2021/06/28 13:25:53;;;;;;;17.50;7.25;;;20.80;92.40;;;;;;5072410;28;20170;-75
2021/06/28 13:28:19;;;;;;;18.15;6.90;;;20.90;91.80;;;;;;5055859;28;20181;-72
2021/06/28 13:30:45;;;;;;;18.35;6.72;;;20.90;91.50;;;;;;5072322;28;20183;-72
2021/06/28 13:33:13;;;;;;;17.10;6.68;;;20.70;92.20;;;;;;5073750;28;20545;-71
2021/06/28 13:35:42;;;;;;;15.98;6.88;;;20.80;92.60;;;;;;5067277;28;20184;-74
2021/06/28 13:38:18;;;;;;;17.17;7.00;;;21.10;92.20;;;;;;5058054;28;20217;-72
2021/06/28 13:40:55;;;;;;;15.48;6.88;;;21.20;91.80;;;;;;5073848;28;20174;-72
2021/06/28 13:43:21;;;;;;;19.48;6.90;;;21.20;91.60;;;;;;5036093;28;20209;-72
2021/06/28 13:45:48;;;;;;;20.33;7.80;;;21.00;91.50;;;;;;5051397;28;20178;-73
2021/06/28 13:48:15;;;;;;;20.15;7.82;;;21.00;91.40;;;;;;5053722;28;20658;-73
2021/06/28 13:50:45;;;;;;;18.15;7.18;;;21.10;91.00;;;;;;5053602;28;20171;-73
2021/06/28 13:53:15;;;;;;;22.73;7.10;;;20.90;91.60;;;;;;5052483;28;20174;-72
2021/06/28 13:55:43;;;;;;;18.90;6.90;;;21.00;92.00;;;;;;5070138;28;20174;-72
2021/06/28 13:58:10;;;;;;;19.90;6.68;;;21.10;91.80;;;;;;5056048;28;20166;-73